createdAt,value
2023-04-19T00:01:58.239Z,11.00
2023-04-19T00:04:01.774Z,11.00
2023-04-19T00:06:05.659Z,11.00
2023-04-19T00:08:09.761Z,11.00
2023-04-19T00:10:16.456Z,11.00
2023-04-19T00:12:20.191Z,11.00
2023-04-19T00:14:27.789Z,11.10
2023-04-19T00:16:31.760Z,11.00
2023-04-19T00:18:35.737Z,11.10
2023-04-19T00:20:40.465Z,11.10
2023-04-19T00:22:44.481Z,11.10
2023-04-19T00:24:47.857Z,11.10
2023-04-19T00:26:51.273Z,11.10
2023-04-19T00:28:55.775Z,11.20
2023-04-19T00:31:01.106Z,11.10
2023-04-19T00:33:04.832Z,11.00
2023-04-19T00:35:08.942Z,11.10
2023-04-19T00:37:12.771Z,11.10
2023-04-19T00:39:16.625Z,11.00
2023-04-19T00:41:19.961Z,10.90
2023-04-19T00:43:23.257Z,11.00
2023-04-19T00:45:27.260Z,10.90
2023-04-19T00:47:32.235Z,11.00
2023-04-19T00:49:35.838Z,11.00
2023-04-19T00:51:40.041Z,11.00
2023-04-19T00:53:43.337Z,11.00
2023-04-19T00:55:47.296Z,11.10
2023-04-19T00:57:52.326Z,11.00
2023-04-19T00:59:56.615Z,11.00
2023-04-19T01:02:00.180Z,11.20
2023-04-19T01:04:06.423Z,11.20
2023-04-19T01:06:09.893Z,11.10
2023-04-19T01:08:13.450Z,11.10
2023-04-19T01:10:17.804Z,11.10
2023-04-19T01:12:21.339Z,11.10
2023-04-19T01:14:24.634Z,11.20
2023-04-19T01:16:29.416Z,11.20
2023-04-19T01:18:37.599Z,11.30
2023-04-19T01:20:42.388Z,11.20
2023-04-19T01:22:47.374Z,11.20
2023-04-19T01:24:51.322Z,11.20
2023-04-19T01:26:54.710Z,11.00
2023-04-19T01:28:58.414Z,10.90
2023-04-19T01:31:01.830Z,10.90
2023-04-19T01:33:05.420Z,10.80
2023-04-19T01:35:11.180Z,10.90
2023-04-19T01:37:15.020Z,11.00
2023-04-19T01:39:19.979Z,11.00
2023-04-19T01:41:27.398Z,10.90
2023-04-19T01:43:30.969Z,11.00
2023-04-19T01:45:36.415Z,10.90
2023-04-19T01:47:39.952Z,10.80
2023-04-19T01:49:43.614Z,10.90
2023-04-19T01:51:48.053Z,10.90
2023-04-19T01:53:53.837Z,10.90
2023-04-19T01:55:58.822Z,10.90
2023-04-19T01:58:02.087Z,10.70
2023-04-19T02:00:06.530Z,10.70
2023-04-19T02:02:09.905Z,10.80
2023-04-19T02:04:14.004Z,10.80
2023-04-19T02:06:17.910Z,10.70
2023-04-19T02:08:21.603Z,10.60
2023-04-19T02:10:25.612Z,10.60
2023-04-19T02:12:31.298Z,10.60
2023-04-19T02:14:35.025Z,10.70
2023-04-19T02:16:38.776Z,10.80
2023-04-19T02:18:42.163Z,10.80
2023-04-19T02:20:45.667Z,10.80
2023-04-19T02:22:49.307Z,10.60
2023-04-19T02:24:52.919Z,10.60
2023-04-19T02:26:56.662Z,10.70
2023-04-19T02:29:02.063Z,10.70
2023-04-19T02:31:06.945Z,10.70
2023-04-19T02:33:10.401Z,10.60
2023-04-19T02:35:14.411Z,10.60
2023-04-19T02:37:18.565Z,10.50
2023-04-19T02:39:21.805Z,10.60
2023-04-19T02:41:25.154Z,10.50
2023-04-19T02:43:28.700Z,10.50
2023-04-19T02:45:33.643Z,10.40
2023-04-19T02:47:37.360Z,10.30
2023-04-19T02:49:41.640Z,10.40
2023-04-19T02:51:45.092Z,10.20
2023-04-19T02:53:49.037Z,10.00
2023-04-19T02:55:52.328Z,10.00
2023-04-19T02:57:55.723Z,10.00
2023-04-19T02:59:59.311Z,9.90
2023-04-19T03:02:04.391Z,9.70
2023-04-19T03:04:08.026Z,9.70
2023-04-19T03:06:11.637Z,9.60
2023-04-19T03:08:15.213Z,9.50
2023-04-19T03:10:18.752Z,9.60
2023-04-19T03:12:22.101Z,9.50
2023-04-19T03:14:25.424Z,9.40
2023-04-19T03:16:30.408Z,9.40
2023-04-19T03:18:35.449Z,9.40
2023-04-19T03:20:38.872Z,9.30
2023-04-19T03:22:42.276Z,9.30
2023-04-19T03:24:45.852Z,9.20
2023-04-19T03:26:48.598Z,9.10
2023-04-19T03:28:52.244Z,9.00
2023-04-19T03:30:56.057Z,9.00
2023-04-19T03:33:00.280Z,8.90
2023-04-19T03:35:05.656Z,8.90
2023-04-19T03:37:09.398Z,8.80
2023-04-19T03:39:12.773Z,8.60
2023-04-19T03:41:23.528Z,8.60
2023-04-19T03:43:27.202Z,8.50
2023-04-19T03:45:30.952Z,8.50
2023-04-19T03:47:34.348Z,8.50
2023-04-19T03:49:37.999Z,8.40
2023-04-19T03:51:42.817Z,8.40
2023-04-19T03:53:46.375Z,8.20
2023-04-19T03:55:49.914Z,8.20
2023-04-19T03:57:53.334Z,8.10
2023-04-19T03:59:56.848Z,8.10
2023-04-19T04:02:00.612Z,8.00
2023-04-19T04:04:05.173Z,7.90
2023-04-19T04:06:09.360Z,7.80
2023-04-19T04:08:14.972Z,7.80
2023-04-19T04:10:18.778Z,7.70
2023-04-19T04:12:22.264Z,7.70
2023-04-19T04:14:26.066Z,7.70
2023-04-19T04:16:29.723Z,7.60
2023-04-19T04:18:33.055Z,7.50
2023-04-19T04:20:36.793Z,7.70
2023-04-19T04:22:42.668Z,7.70
2023-04-19T04:24:49.327Z,7.80
2023-04-19T04:26:52.673Z,7.80
2023-04-19T04:28:56.208Z,7.80
2023-04-19T04:31:00.591Z,7.80
2023-04-19T04:33:04.262Z,7.80
2023-04-19T04:35:09.456Z,8.00
2023-04-19T04:37:13.814Z,8.00
2023-04-19T04:39:17.375Z,8.00
2023-04-19T04:41:22.942Z,7.90
2023-04-19T04:43:29.338Z,8.00
2023-04-19T04:45:34.046Z,8.10
2023-04-19T04:47:37.781Z,8.10
2023-04-19T04:49:41.572Z,8.10
2023-04-19T04:51:45.077Z,8.30
2023-04-19T04:53:48.644Z,8.30
2023-04-19T04:55:52.179Z,8.20
2023-04-19T04:57:57.025Z,8.10
2023-04-19T05:00:00.480Z,8.30
2023-04-19T05:02:04.047Z,8.50
2023-04-19T05:04:07.748Z,8.50
2023-04-19T05:06:11.171Z,8.70
2023-04-19T05:08:14.702Z,8.80
2023-04-19T05:10:18.196Z,8.90
2023-04-19T05:12:21.566Z,9.00
2023-04-19T05:14:26.532Z,9.20
2023-04-19T05:16:30.198Z,9.40
2023-04-19T05:18:33.604Z,9.60
2023-04-19T05:20:36.982Z,9.60
2023-04-19T05:22:40.698Z,10.00
2023-04-19T05:24:44.094Z,10.30
2023-04-19T05:26:47.442Z,10.60
2023-04-19T05:28:50.918Z,11.10
2023-04-19T05:30:57.355Z,11.40
2023-04-19T05:33:00.996Z,11.70
2023-04-19T05:35:04.445Z,12.20
2023-04-19T05:37:07.993Z,12.50
2023-04-19T05:39:11.525Z,12.80
2023-04-19T05:41:15.025Z,12.80
2023-04-19T05:43:18.393Z,13.10
2023-04-19T05:45:23.663Z,13.60
2023-04-19T05:47:29.113Z,13.60
2023-04-19T05:49:33.212Z,13.70
2023-04-19T05:51:36.802Z,14.70
2023-04-19T05:53:40.237Z,14.90
2023-04-19T05:55:45.604Z,15.10
2023-04-19T05:57:49.509Z,15.00
2023-04-19T05:59:52.961Z,14.90
2023-04-19T06:01:57.385Z,15.50
2023-04-19T06:04:02.978Z,15.80
2023-04-19T06:06:07.889Z,15.60
2023-04-19T06:08:12.398Z,15.70
2023-04-19T06:10:16.197Z,15.70
2023-04-19T06:12:20.206Z,15.80
2023-04-19T06:14:24.128Z,15.50
2023-04-19T06:16:27.982Z,15.60
2023-04-19T06:18:31.524Z,15.50
2023-04-19T06:20:37.670Z,15.40
2023-04-19T06:22:45.161Z,15.80
2023-04-19T06:24:49.281Z,16.00
2023-04-19T06:26:52.576Z,15.80
2023-04-19T06:28:55.987Z,16.20
2023-04-19T06:31:00.785Z,17.00
2023-04-19T06:35:09.961Z,18.70
2023-04-19T06:37:14.832Z,19.40
2023-04-19T06:39:18.660Z,19.80
2023-04-19T06:41:23.106Z,20.20
2023-04-19T06:43:26.856Z,20.00
2023-04-19T06:45:30.376Z,20.50
2023-04-19T06:47:35.404Z,21.20
2023-04-19T06:49:39.464Z,21.80
2023-04-19T06:51:43.003Z,22.60
2023-04-19T06:53:48.124Z,22.90
2023-04-19T06:55:55.045Z,23.20
2023-04-19T07:00:02.149Z,24.60
2023-04-19T07:02:05.941Z,24.70
2023-04-19T07:08:20.267Z,26.60
2023-04-19T07:10:25.507Z,24.90
2023-04-19T07:12:28.896Z,25.50
2023-04-19T07:14:32.450Z,24.90
2023-04-19T07:16:35.863Z,24.30
2023-04-19T07:18:42.073Z,24.70
2023-04-19T07:20:48.897Z,24.80
2023-04-19T07:22:52.475Z,25.00
2023-04-19T07:24:55.972Z,25.00
2023-04-19T07:27:01.956Z,25.10
2023-04-19T07:29:05.291Z,25.20
2023-04-19T07:31:08.880Z,24.50
2023-04-19T07:33:12.538Z,23.80
2023-04-19T07:35:15.860Z,23.80
2023-04-19T07:37:22.358Z,24.50
2023-04-19T07:39:25.837Z,25.10
2023-04-19T07:41:29.525Z,26.00
2023-04-19T07:43:34.589Z,27.80
2023-04-19T07:45:38.084Z,28.50
2023-04-19T07:47:41.494Z,29.60
2023-04-19T07:49:45.047Z,29.80
2023-04-19T07:51:49.874Z,30.20
2023-04-19T07:53:53.447Z,30.20
2023-04-19T07:55:56.805Z,29.70
2023-04-19T07:58:00.258Z,29.90
2023-04-19T08:00:05.798Z,29.60
2023-04-19T08:02:09.515Z,29.90
2023-04-19T08:04:13.227Z,30.30
2023-04-19T08:06:17.889Z,30.80
2023-04-19T08:08:21.213Z,30.60
2023-04-19T08:10:24.744Z,29.90
2023-04-19T08:12:36.285Z,30.00
2023-04-19T08:14:56.083Z,30.00
2023-04-19T08:19:11.219Z,30.70
2023-04-19T08:21:14.659Z,30.40
2023-04-19T08:23:25.704Z,30.40
2023-04-19T08:25:31.123Z,31.10
2023-04-19T08:27:34.731Z,31.20
2023-04-19T08:29:38.899Z,30.90
2023-04-19T08:31:45.628Z,31.40
2023-04-19T08:33:51.156Z,30.80
2023-04-19T08:35:54.689Z,30.80
2023-04-19T08:37:58.394Z,30.60
2023-04-19T08:40:01.705Z,31.10
2023-04-19T08:42:13.478Z,30.50
2023-04-19T08:44:36.753Z,30.90
2023-04-19T08:46:43.709Z,30.90
2023-04-19T08:48:48.602Z,32.50
2023-04-19T08:51:04.092Z,33.60
2023-04-19T08:55:17.701Z,31.70
2023-04-19T08:57:21.138Z,31.30
2023-04-19T08:59:24.593Z,31.60
2023-04-19T09:01:34.922Z,32.90
2023-04-19T09:04:00.491Z,32.90
2023-04-19T09:06:12.470Z,31.70
2023-04-19T09:08:24.495Z,32.50
2023-04-19T09:10:27.832Z,32.60
2023-04-19T09:12:31.122Z,33.40
2023-04-19T09:14:34.457Z,33.90
2023-04-19T09:16:39.486Z,33.80
2023-04-19T09:19:22.372Z,33.90
2023-04-19T09:21:29.695Z,33.90
2023-04-19T09:23:33.286Z,32.50
2023-04-19T09:25:55.162Z,31.60
2023-04-19T09:28:11.245Z,30.70
2023-04-19T09:30:24.165Z,29.10
2023-04-19T09:32:47.342Z,28.50
2023-04-19T09:34:56.394Z,27.70
2023-04-19T09:37:21.549Z,28.20
2023-04-19T09:39:37.043Z,29.20
2023-04-19T09:41:53.888Z,28.60
2023-04-19T09:44:44.588Z,27.90
2023-04-19T09:46:36.600Z,26.00
2023-04-19T09:48:40.415Z,25.50
2023-04-19T09:50:59.686Z,25.10
2023-04-19T09:53:07.912Z,23.80
2023-04-19T09:55:25.009Z,22.90
2023-04-19T09:57:30.847Z,22.80
2023-04-19T09:59:34.300Z,22.50
2023-04-19T10:01:41.424Z,22.40
2023-04-19T10:03:47.071Z,22.20
2023-04-19T10:05:51.502Z,21.70
2023-04-19T10:07:59.923Z,21.60
2023-04-19T10:10:18.631Z,21.10
2023-04-19T10:14:37.618Z,20.60
2023-04-19T10:16:41.747Z,19.70
2023-04-19T10:18:45.685Z,19.60
2023-04-19T10:20:54.477Z,18.90
2023-04-19T10:22:58.350Z,18.20
2023-04-19T10:25:14.029Z,18.00
2023-04-19T10:27:17.611Z,17.70
2023-04-19T10:29:58.369Z,16.80
2023-04-19T10:32:02.170Z,16.80
2023-04-19T10:34:07.897Z,16.50
2023-04-19T10:36:12.669Z,15.80
2023-04-19T10:38:17.151Z,15.60
2023-04-19T10:40:56.629Z,15.40
2023-04-19T10:43:20.110Z,14.60
2023-04-19T10:45:36.846Z,14.50
2023-04-19T10:47:43.147Z,14.10
2023-04-19T10:49:47.259Z,13.90
2023-04-19T10:51:52.911Z,14.10
2023-04-19T10:53:58.931Z,14.10
2023-04-19T10:56:02.264Z,14.00
2023-04-19T10:58:07.079Z,13.50
2023-04-19T11:00:22.282Z,13.50
2023-04-19T11:02:30.970Z,13.70
2023-04-19T11:05:14.494Z,13.90
2023-04-19T11:07:20.348Z,14.00
2023-04-19T11:09:24.673Z,13.50
2023-04-19T11:11:28.976Z,12.90
2023-04-19T11:13:32.598Z,13.20
2023-04-19T11:15:44.490Z,13.50
2023-04-19T11:18:00.925Z,13.80
2023-04-19T11:20:14.824Z,13.90
2023-04-19T11:22:18.509Z,13.90
2023-04-19T11:24:21.916Z,13.90
2023-04-19T11:26:28.179Z,14.20
2023-04-19T11:28:34.265Z,14.40
2023-04-19T11:30:39.653Z,14.50
2023-04-19T11:32:49.961Z,14.30
2023-04-19T11:34:53.758Z,14.50
2023-04-19T11:36:57.121Z,14.60
2023-04-19T11:39:00.747Z,15.00
2023-04-19T11:41:05.631Z,15.00
2023-04-19T11:43:09.219Z,15.10
2023-04-19T11:45:25.772Z,14.70
2023-04-19T11:47:34.677Z,14.80
2023-04-19T11:49:38.174Z,14.80
2023-04-19T11:51:44.106Z,14.40
2023-04-19T11:53:47.862Z,14.90
2023-04-19T11:55:52.589Z,15.30
2023-04-19T11:57:56.721Z,15.50
2023-04-19T12:00:11.826Z,15.70
2023-04-19T12:02:16.323Z,15.60
2023-04-19T12:04:23.297Z,16.10
2023-04-19T12:06:29.053Z,15.80
2023-04-19T12:08:34.489Z,15.90
2023-04-19T12:10:37.988Z,16.30
2023-04-19T12:12:41.370Z,16.70
2023-04-19T12:14:53.685Z,16.90
2023-04-19T12:17:11.289Z,17.20
2023-04-19T12:19:18.093Z,17.30
2023-04-19T12:21:32.278Z,17.00
2023-04-19T12:23:35.696Z,16.60
2023-04-19T12:25:39.207Z,16.60
2023-04-19T12:27:42.658Z,16.50
2023-04-19T12:29:46.192Z,16.90
2023-04-19T12:31:49.829Z,16.30
2023-04-19T12:33:53.361Z,16.80
2023-04-19T12:35:56.533Z,16.90
2023-04-19T12:38:02.740Z,17.00
2023-04-19T12:40:06.951Z,17.00
2023-04-19T12:42:10.501Z,17.20
2023-04-19T12:44:13.894Z,17.40
2023-04-19T12:46:17.318Z,17.20
2023-04-19T12:48:20.953Z,17.40
2023-04-19T12:50:24.454Z,17.70
2023-04-19T12:52:28.285Z,17.70
2023-04-19T12:54:33.039Z,17.90
2023-04-19T12:56:36.526Z,17.60
2023-04-19T12:58:39.831Z,17.60
2023-04-19T13:00:43.281Z,17.90
2023-04-19T13:02:48.560Z,18.10
2023-04-19T13:04:52.507Z,17.90
2023-04-19T13:06:56.044Z,18.10
2023-04-19T13:09:01.008Z,18.00
2023-04-19T13:11:06.297Z,18.10
2023-04-19T13:13:09.709Z,18.00
2023-04-19T13:15:13.508Z,17.90
2023-04-19T13:17:16.867Z,17.80
2023-04-19T13:19:20.568Z,17.60
2023-04-19T13:21:24.337Z,17.30
2023-04-19T13:23:27.669Z,17.50
2023-04-19T13:25:31.464Z,17.50
2023-04-19T13:27:36.391Z,17.50
2023-04-19T13:29:39.883Z,17.80
2023-04-19T13:31:44.044Z,17.80
2023-04-19T13:33:47.677Z,17.80
2023-04-19T13:35:51.481Z,17.90
2023-04-19T13:37:54.860Z,17.90
2023-04-19T13:40:10.618Z,17.70
2023-04-19T13:42:19.388Z,17.60
2023-04-19T13:44:25.398Z,17.50
2023-04-19T13:46:29.135Z,17.50
2023-04-19T13:48:32.618Z,17.30
2023-04-19T13:50:35.844Z,16.90
2023-04-19T13:52:39.533Z,16.80
2023-04-19T13:54:42.858Z,16.90
2023-04-19T13:56:46.450Z,17.10
2023-04-19T13:58:49.845Z,17.30
2023-04-19T14:00:55.451Z,17.20
2023-04-19T14:02:59.121Z,17.60
2023-04-19T14:05:02.487Z,17.90
2023-04-19T14:07:05.767Z,17.70
2023-04-19T14:09:09.443Z,18.20
2023-04-19T14:11:13.110Z,17.80
2023-04-19T14:13:16.352Z,17.70
2023-04-19T14:15:19.976Z,17.60
2023-04-19T14:17:24.889Z,17.30
2023-04-19T14:19:28.304Z,17.60
2023-04-19T14:21:32.256Z,17.80
2023-04-19T14:23:35.798Z,18.30
2023-04-19T14:25:39.170Z,17.70
2023-04-19T14:27:42.528Z,17.80
2023-04-19T14:29:45.943Z,17.80
2023-04-19T14:31:49.453Z,17.80
2023-04-19T14:33:54.164Z,17.30
2023-04-19T14:35:57.540Z,16.80
2023-04-19T14:38:01.320Z,16.70
2023-04-19T14:40:04.931Z,16.60
2023-04-19T14:42:08.363Z,16.30
2023-04-19T14:44:11.588Z,16.60
2023-04-19T14:46:14.938Z,16.50
2023-04-19T14:48:20.836Z,16.30
2023-04-19T14:50:26.812Z,16.20
2023-04-19T14:52:30.617Z,16.30
2023-04-19T14:54:34.032Z,16.20
2023-04-19T14:56:38.842Z,16.00
2023-04-19T14:58:42.221Z,15.90
2023-04-19T15:00:45.842Z,15.90
2023-04-19T15:02:49.223Z,16.20
2023-04-19T15:04:52.970Z,16.10
2023-04-19T15:06:57.715Z,16.10
2023-04-19T15:09:01.289Z,15.90
2023-04-19T15:11:04.594Z,16.10
2023-04-19T15:13:07.901Z,16.10
2023-04-19T15:15:12.214Z,16.00
2023-04-19T15:17:15.484Z,15.80
2023-04-19T15:19:19.372Z,16.00
2023-04-19T15:21:24.616Z,16.20
2023-04-19T15:23:29.685Z,16.10
2023-04-19T15:25:32.899Z,15.50
2023-04-19T15:27:36.658Z,15.10
2023-04-19T15:29:41.336Z,14.30
2023-04-19T15:31:44.711Z,14.00
2023-04-19T15:33:48.089Z,13.20
2023-04-19T15:35:52.775Z,13.00
2023-04-19T15:37:56.293Z,12.70
2023-04-19T15:40:01.292Z,12.60
2023-04-19T15:42:05.352Z,12.40
2023-04-19T15:44:08.727Z,12.50
2023-04-19T15:46:14.072Z,12.30
2023-04-19T15:48:17.495Z,12.20
2023-04-19T15:50:21.100Z,12.20
2023-04-19T15:52:24.682Z,12.50
2023-04-19T15:54:28.925Z,12.40
2023-04-19T15:56:33.592Z,12.40
2023-04-19T15:58:37.754Z,12.40
2023-04-19T16:00:41.369Z,12.40
2023-04-19T16:02:45.338Z,12.10
2023-04-19T16:04:52.490Z,11.80
2023-04-19T16:06:56.519Z,12.00
2023-04-19T16:08:59.920Z,11.80
2023-04-19T16:11:03.745Z,11.60
2023-04-19T16:13:08.519Z,11.60
2023-04-19T16:15:13.491Z,11.60
2023-04-19T16:17:17.089Z,11.80
2023-04-19T16:19:23.172Z,11.60
2023-04-19T16:21:30.098Z,11.60
2023-04-19T16:23:33.524Z,11.70
2023-04-19T16:25:36.857Z,11.40
2023-04-19T16:27:43.471Z,11.50
2023-04-19T16:29:49.319Z,11.50
2023-04-19T16:31:52.811Z,11.60
2023-04-19T16:33:56.191Z,11.60
2023-04-19T16:35:59.718Z,11.40
2023-04-19T16:38:04.496Z,11.30
2023-04-19T16:40:09.919Z,11.40
2023-04-19T16:42:13.461Z,11.50
2023-04-19T16:44:16.974Z,11.70
2023-04-19T16:46:22.079Z,11.40
2023-04-19T16:48:26.016Z,11.50
2023-04-19T16:50:29.662Z,11.60
2023-04-19T16:52:34.629Z,11.70
2023-04-19T16:54:38.059Z,11.50
2023-04-19T16:56:41.830Z,11.50
2023-04-19T16:58:45.085Z,11.60
2023-04-19T17:00:48.638Z,11.40
2023-04-19T17:02:53.903Z,11.40
2023-04-19T17:05:00.220Z,11.30
2023-04-19T17:07:03.903Z,11.20
2023-04-19T17:09:08.014Z,11.20
2023-04-19T17:11:11.610Z,11.20
2023-04-19T17:13:14.810Z,11.20
2023-04-19T17:15:18.448Z,11.30
2023-04-19T17:17:22.099Z,11.30
2023-04-19T17:19:29.799Z,11.20
2023-04-19T17:21:33.589Z,11.00
2023-04-19T17:23:37.222Z,10.50
2023-04-19T17:25:41.096Z,10.60
2023-04-19T17:27:44.803Z,10.80
2023-04-19T17:29:48.083Z,10.80
2023-04-19T17:31:51.770Z,10.80
2023-04-19T17:33:55.086Z,10.70
2023-04-19T17:36:02.658Z,10.70
2023-04-19T17:38:06.058Z,10.70
2023-04-19T17:40:10.669Z,10.60
2023-04-19T17:42:19.346Z,10.70
2023-04-19T17:44:26.051Z,10.60
2023-04-19T17:46:29.879Z,10.50
2023-04-19T17:48:34.173Z,10.40
2023-04-19T17:50:37.663Z,10.30
2023-04-19T17:52:42.319Z,10.40
2023-04-19T17:54:46.089Z,10.00
2023-04-19T17:56:49.818Z,10.00
2023-04-19T17:58:53.484Z,10.10
2023-04-19T18:00:56.880Z,10.10
2023-04-19T18:03:01.785Z,10.10
2023-04-19T18:05:06.207Z,10.00
2023-04-19T18:07:09.505Z,9.80
2023-04-19T18:09:14.599Z,9.90
2023-04-19T18:11:18.926Z,10.10
2023-04-19T18:13:22.157Z,10.00
2023-04-19T18:15:25.581Z,9.70
2023-04-19T18:17:29.071Z,9.90
2023-04-19T18:19:32.360Z,10.20
2023-04-19T18:21:36.028Z,10.20
2023-04-19T18:23:39.466Z,10.10
2023-04-19T18:25:44.435Z,10.10
2023-04-19T18:27:49.680Z,10.20
2023-04-19T18:29:53.201Z,10.30
2023-04-19T18:31:56.584Z,10.00
2023-04-19T18:34:00.182Z,10.10
2023-04-19T18:36:03.690Z,10.00
2023-04-19T18:38:07.148Z,10.00
2023-04-19T18:40:12.189Z,10.00
2023-04-19T18:42:17.014Z,9.80
2023-04-19T18:44:43.881Z,9.90
2023-04-19T18:46:44.160Z,10.10
2023-04-19T18:48:47.763Z,10.10
2023-04-19T18:50:51.365Z,10.20
2023-04-19T18:52:54.848Z,10.00
2023-04-19T18:54:58.592Z,9.90
2023-04-19T18:59:11.309Z,10.10
2023-04-19T19:01:14.961Z,10.20
2023-04-19T19:03:41.733Z,10.30
2023-04-19T19:05:42.380Z,10.30
2023-04-19T19:07:46.037Z,10.10
2023-04-19T19:09:55.773Z,10.00
2023-04-19T19:11:59.483Z,10.10
2023-04-19T19:14:05.443Z,10.10
2023-04-19T19:16:12.925Z,10.00
2023-04-19T19:18:16.657Z,10.10
2023-04-19T19:20:20.670Z,10.10
2023-04-19T19:22:28.252Z,10.30
2023-04-19T19:24:32.552Z,10.10
2023-04-19T19:26:36.031Z,10.20
2023-04-19T19:28:39.733Z,10.30
2023-04-19T19:30:44.999Z,10.30
2023-04-19T19:32:50.252Z,10.40
2023-04-19T19:35:02.886Z,10.30
2023-04-19T19:37:08.459Z,10.40
2023-04-19T19:39:12.106Z,10.40
2023-04-19T19:43:23.984Z,10.10
2023-04-19T19:45:29.833Z,10.10
2023-04-19T19:47:35.546Z,10.00
2023-04-19T19:50:01.939Z,10.00
2023-04-19T19:52:03.818Z,10.00
2023-04-19T19:54:07.387Z,10.00
2023-04-19T19:56:19.055Z,10.00
2023-04-19T19:58:47.773Z,10.00
2023-04-19T20:00:52.069Z,10.00
2023-04-19T20:02:56.792Z,10.00
2023-04-19T20:05:01.936Z,10.10
2023-04-19T20:09:11.965Z,9.90
2023-04-19T20:11:15.492Z,9.70
2023-04-19T20:13:18.967Z,9.60
2023-04-19T20:15:22.633Z,9.40
2023-04-19T20:17:26.063Z,9.40
2023-04-19T20:19:29.642Z,9.50
2023-04-19T20:21:34.523Z,9.50
2023-04-19T20:23:39.964Z,9.30
2023-04-19T20:25:43.168Z,8.90
2023-04-19T20:27:46.648Z,8.90
2023-04-19T20:29:50.163Z,9.00
2023-04-19T20:31:53.908Z,8.90
2023-04-19T20:33:57.501Z,8.90
2023-04-19T20:36:01.955Z,8.60
2023-04-19T20:38:08.897Z,8.70
2023-04-19T20:40:14.706Z,8.70
2023-04-19T20:42:18.136Z,8.70
2023-04-19T20:44:22.795Z,8.40
2023-04-19T20:46:26.642Z,8.50
2023-04-19T20:48:30.429Z,8.50
2023-04-19T20:50:33.750Z,8.60
2023-04-19T20:52:37.193Z,8.50
2023-04-19T20:54:42.345Z,8.40
2023-04-19T20:56:45.950Z,8.50
2023-04-19T20:58:49.530Z,8.50
2023-04-19T21:00:53.276Z,8.40
2023-04-19T21:02:56.962Z,8.50
2023-04-19T21:05:00.844Z,8.40
2023-04-19T21:07:04.479Z,8.40
2023-04-19T21:09:08.018Z,8.20
2023-04-19T21:11:13.406Z,8.00
2023-04-19T21:13:16.984Z,8.20
2023-04-19T21:15:20.747Z,8.40
2023-04-19T21:17:24.439Z,8.40
2023-04-19T21:19:27.871Z,8.20
2023-04-19T21:21:32.526Z,8.20
2023-04-19T21:23:36.405Z,8.30
2023-04-19T21:25:40.197Z,8.60
2023-04-19T21:27:44.960Z,8.40
2023-04-19T21:29:48.328Z,8.30
2023-04-19T21:31:51.955Z,8.30
2023-04-19T21:33:55.403Z,8.40
2023-04-19T21:35:58.702Z,8.40
2023-04-19T21:38:02.131Z,8.60
2023-04-19T21:40:06.256Z,8.70
2023-04-19T21:42:09.699Z,8.60
2023-04-19T21:44:14.593Z,8.30
2023-04-19T21:46:18.216Z,8.40
2023-04-19T21:48:21.791Z,8.20
2023-04-19T21:50:25.368Z,8.40
2023-04-19T21:52:28.615Z,8.20
2023-04-19T21:54:34.376Z,8.20
2023-04-19T21:56:39.578Z,8.30
2023-04-19T21:58:42.984Z,8.20
2023-04-19T22:00:47.696Z,8.00
2023-04-19T22:02:51.118Z,8.00
2023-04-19T22:04:54.997Z,8.10
2023-04-19T22:06:58.288Z,7.90
2023-04-19T22:09:03.007Z,7.90
2023-04-19T22:11:06.612Z,8.00
2023-04-19T22:13:10.289Z,8.00
2023-04-19T22:15:14.240Z,8.10
2023-04-19T22:17:19.914Z,7.90
2023-04-19T22:19:24.492Z,7.90
2023-04-19T22:21:27.897Z,8.00
2023-04-19T22:23:31.478Z,7.90
2023-04-19T22:25:34.859Z,7.90
2023-04-19T22:27:38.672Z,7.90
2023-04-19T22:29:42.358Z,7.90
2023-04-19T22:31:46.022Z,7.90
2023-04-19T22:33:50.652Z,8.00
2023-04-19T22:35:53.990Z,8.30
2023-04-19T22:37:57.332Z,7.90
2023-04-19T22:40:00.806Z,8.00
2023-04-19T22:42:04.320Z,8.20
2023-04-19T22:44:07.626Z,8.20
2023-04-19T22:46:11.265Z,8.10
2023-04-19T22:48:14.809Z,8.00
2023-04-19T22:50:19.919Z,8.00
2023-04-19T22:52:23.831Z,8.00
2023-04-19T22:54:27.670Z,8.00
2023-04-19T22:56:34.854Z,8.10
2023-04-19T22:58:38.141Z,8.10
2023-04-19T23:00:41.656Z,8.10
2023-04-19T23:02:44.949Z,8.10
2023-04-19T23:04:49.284Z,8.00
2023-04-19T23:06:54.123Z,8.00
2023-04-19T23:08:57.472Z,8.00
2023-04-19T23:11:00.803Z,8.20
2023-04-19T23:13:04.043Z,8.20
2023-04-19T23:15:08.646Z,8.30
2023-04-19T23:17:12.151Z,8.40
2023-04-19T23:19:16.822Z,8.50
2023-04-19T23:21:20.428Z,8.30
2023-04-19T23:23:25.078Z,8.30
2023-04-19T23:25:28.799Z,8.20
2023-04-19T23:27:32.276Z,8.20
2023-04-19T23:29:35.799Z,8.10
2023-04-19T23:31:39.255Z,8.00
2023-04-19T23:33:42.790Z,7.70
2023-04-19T23:35:46.115Z,7.50
2023-04-19T23:37:49.624Z,7.50
2023-04-19T23:39:54.521Z,7.40
2023-04-19T23:41:58.101Z,7.30
2023-04-19T23:44:01.683Z,7.50
2023-04-19T23:46:04.973Z,7.50
2023-04-19T23:48:08.486Z,7.70
2023-04-19T23:50:12.467Z,7.90
2023-04-19T23:52:15.840Z,7.90
2023-04-19T23:54:21.329Z,8.00
2023-04-19T23:56:26.035Z,7.90
2023-04-19T23:58:29.442Z,7.80
